Time;durP1;ratioP1;P1;durP2;ratioP2;P2;SDS_P1;SDS_P2;PMS_P1;PMS_P2;Temp;Humidity;BMP_temperature;BMP_pressure;BME280_temperature;BME280_humidity;BME280_pressure;Samples;Min_cycle;Max_cycle;Signal;HPM_P1;HPM_P2
2022/03/05 00:04:15;;;;;;;;;;;;;;;1.81;72.00488;102216.5;;;;-78
2022/03/05 00:06:11;;;;;;;11.7;4.3;;;;;;;;;;;;;-78
2022/03/05 00:09:13;;;;;;;;;;;;;;;1.77;72.04199;102214.7;;;;-78
2022/03/05 00:14:12;;;;;;;;;;;;;;;1.72;72.08594;102215.2;;;;-78
2022/03/05 00:19:15;;;;;;;;;;;;;;;1.67;72.1123;102224.4;;;;-77
2022/03/05 00:24:15;;;;;;;;;;;;;;;1.63;72.15918;102219.3;;;;-78
2022/03/05 00:29:15;;;;;;;;;;;;;;;1.58;72.2168;102216.6;;;;-78
2022/03/05 00:34:14;;;;;;;;;;;;;;;1.53;72.16406;102217.6;;;;-77
2022/03/05 00:36:11;;;;;;;14.9;4.4;;;;;;;;;;;;;-78
2022/03/05 00:39:12;;;;;;;;;;;;;;;1.5;72.15723;102220.9;;;;-78
2022/03/05 00:44:17;;;;;;;;;;;;;;;1.47;72.17285;102229.3;;;;-77
2022/03/05 00:49:12;;;;;;;;;;;;;;;1.41;72.17578;102240.6;;;;-79
2022/03/05 00:54:14;;;;;;;;;;;;;;;1.37;72.14551;102240.1;;;;-77
2022/03/05 00:59:13;;;;;;;;;;;;;;;1.32;72.14844;102244.2;;;;-79
2022/03/05 01:04:12;;;;;;;;;;;;;;;1.24;72.09277;102247.6;;;;-78
2022/03/05 01:06:10;;;;;;;9.8;3.9;;;;;;;;;;;;;-78
2022/03/05 01:09:12;;;;;;;;;;;;;;;1.2;72.05371;102254;;;;-76
2022/03/05 01:14:12;;;;;;;;;;;;;;;1.14;71.97852;102257.9;;;;-78
2022/03/05 01:19:12;;;;;;;;;;;;;;;1.08;72.06543;102265.2;;;;-77
2022/03/05 01:24:12;;;;;;;;;;;;;;;1;71.97559;102259.9;;;;-77
2022/03/05 01:29:14;;;;;;;;;;;;;;;0.94;72.05273;102256.8;;;;-77
2022/03/05 01:34:13;;;;;;;;;;;;;;;0.87;72.07324;102260.4;;;;-77
2022/03/05 01:36:11;;;;;;;12.9;4.1;;;;;;;;;;;;;-78
2022/03/05 01:39:12;;;;;;;;;;;;;;;0.81;72.09668;102260;;;;-78
2022/03/05 01:44:14;;;;;;;;;;;;;;;0.77;72.03516;102255.8;;;;-77
2022/03/05 01:49:15;;;;;;;;;;;;;;;0.71;72.09082;102254.2;;;;-77
2022/03/05 01:54:14;;;;;;;;;;;;;;;0.65;72.06934;102256;;;;-77
2022/03/05 01:59:13;;;;;;;;;;;;;;;0.6;71.99609;102246.2;;;;-78
2022/03/05 02:04:14;;;;;;;;;;;;;;;0.55;72.0625;102248.2;;;;-79
2022/03/05 02:06:10;;;;;;;11.2;3.6;;;;;;;;;;;;;-78
2022/03/05 02:09:12;;;;;;;;;;;;;;;0.5;72.02246;102255.5;;;;-78
2022/03/05 02:14:13;;;;;;;;;;;;;;;0.44;72.01172;102251.4;;;;-78
2022/03/05 02:19:12;;;;;;;;;;;;;;;0.37;72.02148;102245.3;;;;-77
2022/03/05 02:24:12;;;;;;;;;;;;;;;0.3;71.95605;102244.5;;;;-78
2022/03/05 02:29:12;;;;;;;;;;;;;;;0.23;72.08496;102238;;;;-77
2022/03/05 02:34:12;;;;;;;;;;;;;;;0.18;72.06445;102241.2;;;;-77
2022/03/05 02:36:09;;;;;;;9.7;3.8;;;;;;;;;;;;;-77
2022/03/05 02:39:12;;;;;;;;;;;;;;;0.12;72.07715;102243;;;;-78
2022/03/05 02:44:13;;;;;;;;;;;;;;;0.05;72.07617;102231.9;;;;-78
2022/03/05 02:49:13;;;;;;;;;;;;;;;-0.01;72.09961;102224.8;;;;-78
2022/03/05 02:54:14;;;;;;;;;;;;;;;-0.05;72.13672;102223.1;;;;-77
2022/03/05 02:59:15;;;;;;;;;;;;;;;-0.1;72.11426;102231.7;;;;-77
2022/03/05 03:04:12;;;;;;;;;;;;;;;-0.14;72.18359;102232.5;;;;-77
2022/03/05 03:06:08;;;;;;;9.3;3.8;;;;;;;;;;;;;-78
2022/03/05 03:09:14;;;;;;;;;;;;;;;-0.17;72.13477;102236.6;;;;-78
2022/03/05 03:14:15;;;;;;;;;;;;;;;-0.24;72.21191;102231.7;;;;-79
2022/03/05 03:19:13;;;;;;;;;;;;;;;-0.29;72.15918;102221.6;;;;-78
2022/03/05 03:24:13;;;;;;;;;;;;;;;-0.32;72.14258;102221.3;;;;-77
2022/03/05 03:29:12;;;;;;;;;;;;;;;-0.37;72.23242;102220.4;;;;-77
2022/03/05 03:34:15;;;;;;;;;;;;;;;-0.42;72.2998;102220.6;;;;-78
2022/03/05 03:36:16;;;;;;;9.3;3.9;;;;;;;;;;;;;-78
2022/03/05 03:39:12;;;;;;;;;;;;;;;-0.44;72.30566;102217.3;;;;-81
2022/03/05 03:44:15;;;;;;;;;;;;;;;-0.47;72.19336;102222.4;;;;-80
2022/03/05 03:49:12;;;;;;;;;;;;;;;-0.52;72.27246;102219.2;;;;-80
2022/03/05 03:54:16;;;;;;;;;;;;;;;-0.56;72.19043;102221.2;;;;-81
2022/03/05 03:59:12;;;;;;;;;;;;;;;-0.6;72.25879;102220;;;;-82
2022/03/05 04:04:15;;;;;;;;;;;;;;;-0.65;72.36816;102220.7;;;;-82
2022/03/05 04:06:08;;;;;;;13.3;4.3;;;;;;;;;;;;;-83
2022/03/05 04:09:12;;;;;;;;;;;;;;;-0.69;72.27539;102214.7;;;;-82
2022/03/05 04:14:17;;;;;;;;;;;;;;;-0.7;72.31738;102213.2;;;;-81
2022/03/05 04:19:13;;;;;;;;;;;;;;;-0.73;72.4082;102211.5;;;;-81
2022/03/05 04:24:14;;;;;;;;;;;;;;;-0.75;72.50195;102209.8;;;;-80
2022/03/05 04:29:12;;;;;;;;;;;;;;;-0.75;72.58887;102212.1;;;;-81
2022/03/05 04:34:12;;;;;;;;;;;;;;;-0.78;72.43262;102212.2;;;;-81
2022/03/05 04:36:08;;;;;;;9.3;4;;;;;;;;;;;;;-82
2022/03/05 04:39:16;;;;;;;;;;;;;;;-0.76;72.68457;102217.9;;;;-81
2022/03/05 04:44:13;;;;;;;;;;;;;;;-0.76;72.63184;102222.4;;;;-80
2022/03/05 04:49:13;;;;;;;;;;;;;;;-0.78;72.5625;102216.3;;;;-81
2022/03/05 04:54:12;;;;;;;;;;;;;;;-0.79;72.64746;102220.3;;;;-81
2022/03/05 04:59:15;;;;;;;;;;;;;;;-0.8;72.38477;102218;;;;-81
2022/03/05 05:04:12;;;;;;;;;;;;;;;-0.84;72.48828;102215.6;;;;-81
2022/03/05 05:06:05;;;;;;;11.2;4.1;;;;;;;;;;;;;-80
2022/03/05 05:09:14;;;;;;;;;;;;;;;-0.85;72.50684;102221.8;;;;-81
2022/03/05 05:14:12;;;;;;;;;;;;;;;-0.87;72.54688;102226;;;;-80
2022/03/05 05:19:29;;;;;;;;;;;;;;;-0.89;72.50977;102240.7;;;;-81
2022/03/05 05:24:12;;;;;;;;;;;;;;;-0.91;72.49707;102234.7;;;;-81
2022/03/05 05:29:12;;;;;;;;;;;;;;;-0.92;72.4082;102236.8;;;;-81
2022/03/05 05:34:12;;;;;;;;;;;;;;;-0.96;72.53125;102240.8;;;;-82
2022/03/05 05:36:05;;;;;;;10.9;4.3;;;;;;;;;;;;;-81
2022/03/05 05:39:15;;;;;;;;;;;;;;;-1;72.48145;102243.1;;;;-81
2022/03/05 05:44:13;;;;;;;;;;;;;;;-1.01;72.46973;102244;;;;-82
2022/03/05 05:49:12;;;;;;;;;;;;;;;-1.04;72.36621;102246.3;;;;-80
2022/03/05 05:54:13;;;;;;;;;;;;;;;-1.05;72.66797;102245.2;;;;-82
2022/03/05 05:59:14;;;;;;;;;;;;;;;-1.07;72.62012;102247.7;;;;-82
2022/03/05 06:04:15;;;;;;;;;;;;;;;-1.08;72.59766;102252.3;;;;-82
2022/03/05 06:06:04;;;;;;;9.8;4.1;;;;;;;;;;;;;-81
2022/03/05 06:09:12;;;;;;;;;;;;;;;-1.1;72.51758;102256.5;;;;-81
2022/03/05 06:14:12;;;;;;;;;;;;;;;-1.11;72.39844;102258.8;;;;-83
2022/03/05 06:19:14;;;;;;;;;;;;;;;-1.15;72.6709;102264.2;;;;-81
2022/03/05 06:24:13;;;;;;;;;;;;;;;-1.18;72.62305;102266.8;;;;-80
2022/03/05 06:29:12;;;;;;;;;;;;;;;-1.19;72.84863;102259;;;;-81
2022/03/05 06:34:12;;;;;;;;;;;;;;;-1.18;72.84961;102262.6;;;;-82
2022/03/05 06:36:03;;;;;;;12.3;4.5;;;;;;;;;;;;;-82
2022/03/05 06:39:13;;;;;;;;;;;;;;;-1.18;72.66699;102270.5;;;;-83
2022/03/05 06:44:12;;;;;;;;;;;;;;;-1.17;72.72168;102272.4;;;;-82
2022/03/05 06:49:12;;;;;;;;;;;;;;;-1.16;72.74512;102279.1;;;;-83
2022/03/05 06:54:13;;;;;;;;;;;;;;;-1.14;72.62012;102281;;;;-81
2022/03/05 06:59:12;;;;;;;;;;;;;;;-1.12;72.64551;102280.6;;;;-80
2022/03/05 07:04:15;;;;;;;;;;;;;;;-1.07;72.71777;102286;;;;-81
2022/03/05 07:06:02;;;;;;;13.3;4.9;;;;;;;;;;;;;-81
2022/03/05 07:09:12;;;;;;;;;;;;;;;-1.01;72.66406;102288.1;;;;-81
2022/03/05 07:14:14;;;;;;;;;;;;;;;-0.94;72.85938;102295.2;;;;-82
2022/03/05 07:19:15;;;;;;;;;;;;;;;-0.84;72.85352;102305.6;;;;-80
2022/03/05 07:24:15;;;;;;;;;;;;;;;-0.77;73.375;102304.9;;;;-83
2022/03/05 07:29:12;;;;;;;;;;;;;;;-0.63;73.70996;102311.8;;;;-81
2022/03/05 07:34:14;;;;;;;;;;;;;;;-0.48;74.30957;102312;;;;-83
2022/03/05 07:36:04;;;;;;;15.1;5.4;;;;;;;;;;;;;-80
2022/03/05 07:39:19;;;;;;;;;;;;;;;-0.31;74.21973;102303.9;;;;-82
2022/03/05 07:44:13;;;;;;;;;;;;;;;-0.13;73.99121;102302.4;;;;-81
2022/03/05 07:49:14;;;;;;;;;;;;;;;0.1;71.97656;102303.6;;;;-82
2022/03/05 07:54:12;;;;;;;;;;;;;;;0.32;71.44922;102313;;;;-80
2022/03/05 07:59:14;;;;;;;;;;;;;;;0.51;71.2334;102312;;;;-80
2022/03/05 08:04:12;;;;;;;;;;;;;;;0.71;71.1582;102309.3;;;;-81
2022/03/05 08:06:00;;;;;;;17.1;5.8;;;;;;;;;;;;;-82
2022/03/05 08:09:13;;;;;;;;;;;;;;;0.9;71.62402;102311.4;;;;-81
2022/03/05 08:14:13;;;;;;;;;;;;;;;1.21;71.70801;102318;;;;-81
2022/03/05 08:19:12;;;;;;;;;;;;;;;1.54;71.73047;102323.7;;;;-81
2022/03/05 08:24:12;;;;;;;;;;;;;;;1.81;71.10254;102328.9;;;;-82
2022/03/05 08:29:14;;;;;;;;;;;;;;;2.2;71.52637;102338.4;;;;-81
2022/03/05 08:34:13;;;;;;;;;;;;;;;2.63;71.16211;102336.8;;;;-80
2022/03/05 08:36:00;;;;;;;16;6.2;;;;;;;;;;;;;-79
2022/03/05 08:39:14;;;;;;;;;;;;;;;2.98;71.16504;102334.6;;;;-80
2022/03/05 08:44:13;;;;;;;;;;;;;;;3.43;70.3457;102330.4;;;;-81
2022/03/05 08:49:13;;;;;;;;;;;;;;;3.87;70.06738;102332.2;;;;-83
2022/03/05 08:54:25;;;;;;;;;;;;;;;4.3;68.98926;102331.2;;;;-81
2022/03/05 08:59:12;;;;;;;;;;;;;;;4.64;67.88184;102324.2;;;;-81
2022/03/05 09:04:12;;;;;;;;;;;;;;;5;67.40234;102322.3;;;;-80
2022/03/05 09:05:59;;;;;;;19.1;7.4;;;;;;;;;;;;;-81
2022/03/05 09:09:14;;;;;;;;;;;;;;;5.29;66.58105;102322;;;;-81
2022/03/05 09:14:20;;;;;;;;;;;;;;;5.62;66.38965;102322.4;;;;-80
2022/03/05 09:19:14;;;;;;;;;;;;;;;5.94;64.82422;102321.7;;;;-80
2022/03/05 09:24:12;;;;;;;;;;;;;;;6.16;64.41504;102320.1;;;;-81
2022/03/05 09:29:13;;;;;;;;;;;;;;;6.39;63.60254;102319.4;;;;-80
2022/03/05 09:34:12;;;;;;;;;;;;;;;6.62;63.53711;102319.8;;;;-81
2022/03/05 09:36:06;;;;;;;22;7.6;;;;;;;;;;;;;-80
2022/03/05 09:39:12;;;;;;;;;;;;;;;6.84;62.36719;102316.4;;;;-80
2022/03/05 09:44:13;;;;;;;;;;;;;;;7.09;62.24805;102323.1;;;;-80
2022/03/05 09:49:21;;;;;;;;;;;;;;;7.25;61.27832;102321.2;;;;-83
2022/03/05 09:54:12;;;;;;;;;;;;;;;7.48;61.41016;102322.3;;;;-80
2022/03/05 09:59:15;;;;;;;;;;;;;;;7.71;60.08301;102321.4;;;;-80
2022/03/05 10:04:27;;;;;;;;;;;;;;;7.92;59.73535;102324.1;;;;-81
2022/03/05 10:06:09;;;;;;;24.1;8.7;;;;;;;;;;;;;-82
2022/03/05 10:09:22;;;;;;;;;;;;;;;8.06;59.63281;102324.8;;;;-80
2022/03/05 10:14:29;;;;;;;;;;;;;;;8.28;59.07617;102327.8;;;;-80
2022/03/05 10:19:23;;;;;;;;;;;;;;;8.5;58.45215;102324;;;;-82
2022/03/05 10:24:13;;;;;;;;;;;;;;;8.61;58.39063;102326.4;;;;-81
2022/03/05 10:29:24;;;;;;;;;;;;;;;8.66;58.24121;102320.3;;;;-80
2022/03/05 10:34:12;;;;;;;;;;;;;;;8.94;58.29004;102319;;;;-81
2022/03/05 10:36:01;;;;;;;22.1;9.7;;;;;;;;;;;;;-80
2022/03/05 10:39:12;;;;;;;;;;;;;;;9.13;58.2832;102317.9;;;;-80
2022/03/05 10:44:15;;;;;;;;;;;;;;;9.29;58.09375;102316.1;;;;-81
2022/03/05 10:49:19;;;;;;;;;;;;;;;9.47;58.1709;102315.7;;;;-82
2022/03/05 10:54:29;;;;;;;;;;;;;;;9.64;58.20508;102311.2;;;;-85
2022/03/05 10:59:23;;;;;;;;;;;;;;;9.81;58.92871;102311.6;;;;-83
2022/03/05 11:04:15;;;;;;;;;;;;;;;9.96;58.73828;102313;;;;-79
2022/03/05 11:06:01;;;;;;;23;9.9;;;;;;;;;;;;;-80
2022/03/05 11:09:13;;;;;;;;;;;;;;;10.12;58.90527;102309.5;;;;-81
2022/03/05 11:14:15;;;;;;;;;;;;;;;10.34;61.46973;102310.5;;;;-80
2022/03/05 11:19:15;;;;;;;;;;;;;;;10.54;61.7334;102316.4;;;;-80
2022/03/05 11:24:18;;;;;;;;;;;;;;;10.61;59.9834;102316.7;;;;-83
2022/03/05 11:34:24;;;;;;;;;;;;;;;10.8;64.41797;102312.7;;;;-80
2022/03/05 11:36:10;;;;;;;25.4;11.4;;;;;;;;;;;;;-82
2022/03/05 11:39:36;;;;;;;;;;;;;;;10.94;64.83984;102311;;;;-80
2022/03/05 11:44:26;;;;;;;;;;;;;;;11.17;68.03418;102308.1;;;;-80
2022/03/05 11:49:22;;;;;;;;;;;;;;;11.25;68.07813;102304.3;;;;-80
2022/03/05 11:54:17;;;;;;;;;;;;;;;11.29;65.61621;102304.4;;;;-80
2022/03/05 11:59:23;;;;;;;;;;;;;;;11.47;67.06738;102308.7;;;;-79
2022/03/05 12:04:23;;;;;;;;;;;;;;;11.63;70.81934;102304.2;;;;-79
2022/03/05 12:06:18;;;;;;;;;;;;;;;;;;;;;
2022/03/05 12:09:25;;;;;;;;;;;;;;;11.66;70.45801;102299.9;;;;-79
2022/03/05 12:14:13;;;;;;;;;;;;;;;11.78;72.39063;102300.8;;;;-80
2022/03/05 12:19:13;;;;;;;;;;;;;;;11.86;72.25781;102304.4;;;;-79
2022/03/05 12:24:13;;;;;;;;;;;;;;;11.87;72.9043;102300;;;;-80
2022/03/05 12:29:13;;;;;;;;;;;;;;;12;73.10547;102295.7;;;;-79
2022/03/05 12:34:13;;;;;;;;;;;;;;;12.04;72.50098;102295;;;;-79
2022/03/05 12:36:04;;;;;;;28.1;11.5;;;;;;;;;;;;;-79
2022/03/05 12:39:14;;;;;;;;;;;;;;;12.04;72.99023;102289.1;;;;-78
2022/03/05 12:44:14;;;;;;;;;;;;;;;12.02;73.4082;102290.6;;;;-78
2022/03/05 12:49:21;;;;;;;;;;;;;;;12.05;73.62598;102288.8;;;;-79
2022/03/05 12:54:12;;;;;;;;;;;;;;;12.01;73.37402;102285.9;;;;-82
2022/03/05 12:59:12;;;;;;;;;;;;;;;11.96;73.0752;102287.2;;;;-83
2022/03/05 13:04:13;;;;;;;;;;;;;;;11.83;73.83301;102291;;;;-81
2022/03/05 13:06:07;;;;;;;28;12.3;;;;;;;;;;;;;-82
2022/03/05 13:09:19;;;;;;;;;;;;;;;11.8;73.58301;102294.5;;;;-81
2022/03/05 13:14:12;;;;;;;;;;;;;;;11.71;73.75586;102286;;;;-80
2022/03/05 13:19:18;;;;;;;;;;;;;;;11.71;72.94531;102287.4;;;;-82
2022/03/05 13:24:13;;;;;;;;;;;;;;;11.7;72.96582;102285.5;;;;-83
2022/03/05 13:34:23;;;;;;;;;;;;;;;11.54;72.5498;102284.3;;;;-80
2022/03/05 13:36:12;;;;;;;28.2;12.4;;;;;;;;;;;;;-81
2022/03/05 13:39:19;;;;;;;;;;;;;;;11.47;73.41699;102283.4;;;;-81
2022/03/05 13:44:21;;;;;;;;;;;;;;;11.39;72.94824;102284.8;;;;-82
2022/03/05 13:54:13;;;;;;;;;;;;;;;11.36;73.53027;102292.6;;;;-81
2022/03/05 13:59:13;;;;;;;;;;;;;;;11.37;73.67969;102292;;;;-80
2022/03/05 14:04:19;;;;;;;;;;;;;;;11.42;73.50781;102292.7;;;;-80
2022/03/05 14:06:17;;;;;;;30.2;12.2;;;;;;;;;;;;;-81
2022/03/05 14:14:17;;;;;;;;;;;;;;;11.34;72.0498;102282.4;;;;-84
2022/03/05 14:19:22;;;;;;;;;;;;;;;11.29;72.26465;102278.4;;;;-80
2022/03/05 14:24:14;;;;;;;;;;;;;;;11.28;71.95215;102277.5;;;;-80
2022/03/05 14:29:13;;;;;;;;;;;;;;;11.28;72.55176;102284;;;;-79
2022/03/05 14:34:21;;;;;;;;;;;;;;;11.27;71.91895;102274.6;;;;-80
2022/03/05 14:36:10;;;;;;;29.8;12.8;;;;;;;;;;;;;-80
2022/03/05 14:39:13;;;;;;;;;;;;;;;11.23;72.4541;102275.1;;;;-80
2022/03/05 14:44:16;;;;;;;;;;;;;;;11.17;72.12305;102282.1;;;;-81
2022/03/05 14:49:14;;;;;;;;;;;;;;;11.1;71.73535;102279;;;;-81
2022/03/05 14:54:14;;;;;;;;;;;;;;;10.99;71.19336;102292.7;;;;-81
2022/03/05 14:59:12;;;;;;;;;;;;;;;10.93;71.0957;102297.9;;;;-79
2022/03/05 15:04:15;;;;;;;;;;;;;;;10.87;71.18359;102295.6;;;;-80
2022/03/05 15:06:21;;;;;;;27.3;11.6;;;;;;;;;;;;;-82
2022/03/05 15:09:15;;;;;;;;;;;;;;;10.78;71.2041;102292.2;;;;-80
2022/03/05 15:14:20;;;;;;;;;;;;;;;10.73;70.1416;102297.8;;;;-80
2022/03/05 15:19:17;;;;;;;;;;;;;;;10.61;69.42188;102296.5;;;;-79
2022/03/05 15:24:17;;;;;;;;;;;;;;;10.46;68.5332;102297.9;;;;-80
2022/03/05 15:29:13;;;;;;;;;;;;;;;10.36;69.59375;102296.6;;;;-80
2022/03/05 15:34:15;;;;;;;;;;;;;;;10.26;69.4668;102297.9;;;;-79
2022/03/05 15:36:12;;;;;;;23.3;11.1;;;;;;;;;;;;;-80
2022/03/05 15:39:21;;;;;;;;;;;;;;;10.15;69.31641;102297.5;;;;-82
2022/03/05 15:44:12;;;;;;;;;;;;;;;10.06;68.8916;102304.8;;;;-81
2022/03/05 15:49:12;;;;;;;;;;;;;;;9.95;68.40918;102305.9;;;;-79
2022/03/05 15:54:15;;;;;;;;;;;;;;;9.78;67.21777;102311.9;;;;-80
2022/03/05 15:59:13;;;;;;;;;;;;;;;9.63;67.52832;102310.1;;;;-81
2022/03/05 16:04:15;;;;;;;;;;;;;;;9.47;66.9043;102307.1;;;;-82
2022/03/05 16:06:22;;;;;;;25;10.5;;;;;;;;;;;;;-81
2022/03/05 16:09:15;;;;;;;;;;;;;;;9.29;66.51074;102307.3;;;;-81
2022/03/05 16:14:25;;;;;;;;;;;;;;;9.12;66.13086;102309.9;;;;-82
2022/03/05 16:19:15;;;;;;;;;;;;;;;8.97;66.06348;102310.9;;;;-82
2022/03/05 16:24:15;;;;;;;;;;;;;;;8.78;66.47754;102307.5;;;;-82
2022/03/05 16:29:13;;;;;;;;;;;;;;;8.7;66.65234;102303.9;;;;-82
2022/03/05 16:34:14;;;;;;;;;;;;;;;8.56;65.0498;102311.1;;;;-83
2022/03/05 16:36:18;;;;;;;24.6;10;;;;;;;;;;;;;-83
2022/03/05 16:39:13;;;;;;;;;;;;;;;8.37;65.54102;102307.7;;;;-83
2022/03/05 16:44:20;;;;;;;;;;;;;;;8.14;65.91602;102311.6;;;;-82
2022/03/05 16:49:17;;;;;;;;;;;;;;;7.93;66.49023;102317.3;;;;-83
2022/03/05 16:54:16;;;;;;;;;;;;;;;7.7;66.07031;102313.5;;;;-81
2022/03/05 16:59:12;;;;;;;;;;;;;;;7.48;66.4668;102313.2;;;;-83
2022/03/05 17:04:12;;;;;;;;;;;;;;;7.27;66.875;102322.7;;;;-82
2022/03/05 17:06:15;;;;;;;20.6;8.7;;;;;;;;;;;;;-83
2022/03/05 17:09:15;;;;;;;;;;;;;;;7.06;66.93164;102326.5;;;;-82
2022/03/05 17:14:18;;;;;;;;;;;;;;;6.87;66.43848;102328.1;;;;-82
2022/03/05 17:19:12;;;;;;;;;;;;;;;6.66;66.71484;102335.1;;;;-83
2022/03/05 17:24:17;;;;;;;;;;;;;;;6.45;66.71484;102340.2;;;;-82
2022/03/05 17:29:12;;;;;;;;;;;;;;;6.25;66.89355;102342;;;;-82
2022/03/05 17:34:12;;;;;;;;;;;;;;;6.05;66.71973;102349.7;;;;-81
2022/03/05 17:36:23;;;;;;;19;8.2;;;;;;;;;;;;;-84
2022/03/05 17:39:12;;;;;;;;;;;;;;;5.86;66.75586;102352.7;;;;-83
2022/03/05 17:44:12;;;;;;;;;;;;;;;5.66;66.86719;102359.7;;;;-83
2022/03/05 17:49:12;;;;;;;;;;;;;;;5.47;66.91504;102359.9;;;;-83
2022/03/05 17:54:16;;;;;;;;;;;;;;;5.28;67.15039;102363.8;;;;-82
2022/03/05 17:59:16;;;;;;;;;;;;;;;5.09;67.25195;102365.2;;;;-83
2022/03/05 18:04:13;;;;;;;;;;;;;;;4.92;67.42383;102366.7;;;;-83
2022/03/05 18:06:15;;;;;;;19.5;7.4;;;;;;;;;;;;;-80
2022/03/05 18:09:18;;;;;;;;;;;;;;;4.76;67.46191;102364;;;;-82
2022/03/05 18:14:15;;;;;;;;;;;;;;;4.63;67.67285;102376.3;;;;-82
2022/03/05 18:19:13;;;;;;;;;;;;;;;4.46;67.81055;102375;;;;-82
2022/03/05 18:24:12;;;;;;;;;;;;;;;4.33;67.91016;102373.5;;;;-84
2022/03/05 18:29:12;;;;;;;;;;;;;;;4.2;68.00977;102377.8;;;;-83
2022/03/05 18:34:24;;;;;;;;;;;;;;;4.08;68.2207;102384.1;;;;-82
2022/03/05 18:36:18;;;;;;;18;6.3;;;;;;;;;;;;;-83
2022/03/05 18:39:12;;;;;;;;;;;;;;;3.96;68.39941;102389.6;;;;-83
2022/03/05 18:44:12;;;;;;;;;;;;;;;3.84;68.45508;102397.1;;;;-82
2022/03/05 18:49:17;;;;;;;;;;;;;;;3.73;68.61328;102403.1;;;;-83
2022/03/05 18:54:15;;;;;;;;;;;;;;;3.63;68.65137;102408.3;;;;-83
2022/03/05 18:59:14;;;;;;;;;;;;;;;3.54;68.57129;102412;;;;-82
2022/03/05 19:04:12;;;;;;;;;;;;;;;3.44;68.73047;102410;;;;-82
2022/03/05 19:06:16;;;;;;;16.3;6.4;;;;;;;;;;;;;-84
2022/03/05 19:09:44;;;;;;;;;;;;;;;3.37;68.81641;102417.8;;;;-83
2022/03/05 19:14:20;;;;;;;;;;;;;;;3.29;68.96777;102416.8;;;;-84
2022/03/05 19:19:12;;;;;;;;;;;;;;;3.22;68.97852;102422.8;;;;-83
2022/03/05 19:24:19;;;;;;;;;;;;;;;3.15;69.05566;102430.8;;;;-82
2022/03/05 19:29:15;;;;;;;;;;;;;;;3.09;69.20898;102429.9;;;;-83
2022/03/05 19:34:18;;;;;;;;;;;;;;;3.02;69.23047;102429.1;;;;-84
2022/03/05 19:36:20;;;;;;;16.6;6.1;;;;;;;;;;;;;-85
2022/03/05 19:39:20;;;;;;;;;;;;;;;2.95;69.30762;102435.4;;;;-83
2022/03/05 19:44:16;;;;;;;;;;;;;;;2.88;69.35059;102446.3;;;;-83
2022/03/05 19:49:14;;;;;;;;;;;;;;;2.8;69.43652;102457.2;;;;-84
2022/03/05 19:54:15;;;;;;;;;;;;;;;2.73;69.52148;102459.2;;;;-84
2022/03/05 19:59:12;;;;;;;;;;;;;;;2.66;69.58691;102470.2;;;;-83
2022/03/05 20:06:43;;;;;;;;;;;;;;;;;;;;;
2022/03/05 20:12:23;;;;;;;;;;;;;;;2.46;69.96875;102477.4;;;;-83
2022/03/05 20:17:19;;;;;;;;;;;;;;;2.39;70.01074;102477.6;;;;-82
2022/03/05 20:22:32;;;;;;;;;;;;;;;2.34;70.11133;102481.8;;;;-82
2022/03/05 20:40:32;;;;;;;;;;;;;;;2.17;70.49805;102499.4;;;;-83
2022/03/05 20:45:41;;;;;;;;;;;;;;;2.15;70.72363;102502.6;;;;-82
2022/03/05 20:50:27;;;;;;;;;;;;;;;2.11;70.72656;102504.5;;;;-82
2022/03/05 20:55:31;;;;;;;;;;;;;;;2.09;70.77832;102513.4;;;;-83
2022/03/05 21:00:32;;;;;;;;;;;;;;;2.06;70.82813;102519.7;;;;-81
2022/03/05 21:05:26;;;;;;;;;;;;;;;2.04;70.94336;102529.6;;;;-84
2022/03/05 21:06:19;;;;;;;13;5.1;;;;;;;;;;;;;-82
2022/03/05 21:10:27;;;;;;;;;;;;;;;2.01;70.99414;102532.9;;;;-84
2022/03/05 21:15:26;;;;;;;;;;;;;;;1.98;71.04395;102540.4;;;;-81
2022/03/05 21:20:32;;;;;;;;;;;;;;;1.96;71.09473;102541;;;;-82
2022/03/05 21:25:27;;;;;;;;;;;;;;;1.93;71.16602;102544.2;;;;-82
2022/03/05 21:30:29;;;;;;;;;;;;;;;1.9;71.01953;102541.9;;;;-81
2022/03/05 21:35:26;;;;;;;;;;;;;;;1.87;71.15332;102548.2;;;;-82
2022/03/05 21:36:16;;;;;;;11.4;4.9;;;;;;;;;;;;;-81
2022/03/05 21:40:31;;;;;;;;;;;;;;;1.83;71.12793;102556.3;;;;-80
2022/03/05 21:45:26;;;;;;;;;;;;;;;1.8;71.05664;102563.1;;;;-82
2022/03/05 21:50:28;;;;;;;;;;;;;;;1.76;71.08301;102572.7;;;;-82
2022/03/05 21:55:26;;;;;;;;;;;;;;;1.72;71.1416;102584;;;;-82
2022/03/05 22:00:26;;;;;;;;;;;;;;;1.67;71.19824;102588.8;;;;-82
2022/03/05 22:05:26;;;;;;;;;;;;;;;1.63;71.26758;102596.7;;;;-82
2022/03/05 22:06:16;;;;;;;12.7;4.6;;;;;;;;;;;;;-82
2022/03/05 22:10:27;;;;;;;;;;;;;;;1.6;71.24023;102599.5;;;;-81
2022/03/05 22:15:26;;;;;;;;;;;;;;;1.55;71.29785;102605.4;;;;-81
2022/03/05 22:20:26;;;;;;;;;;;;;;;1.52;71.45508;102608.9;;;;-82
2022/03/05 22:25:26;;;;;;;;;;;;;;;1.49;71.40625;102614.8;;;;-81
2022/03/05 22:30:26;;;;;;;;;;;;;;;1.46;71.3916;102615.3;;;;-84
2022/03/05 22:35:28;;;;;;;;;;;;;;;1.42;71.42871;102617.6;;;;-80
2022/03/05 22:36:13;;;;;;;12.2;4.5;;;;;;;;;;;;;-82
2022/03/05 22:40:29;;;;;;;;;;;;;;;1.39;71.3916;102622.4;;;;-82
2022/03/05 22:45:28;;;;;;;;;;;;;;;1.35;71.42773;102624;;;;-81
2022/03/05 22:50:28;;;;;;;;;;;;;;;1.31;71.35449;102628.5;;;;-81
2022/03/05 22:55:27;;;;;;;;;;;;;;;1.26;71.47754;102629.6;;;;-82
2022/03/05 23:00:40;;;;;;;;;;;;;;;1.22;71.60156;102630.2;;;;-82
2022/03/05 23:05:29;;;;;;;;;;;;;;;1.16;71.76465;102631.5;;;;-81
2022/03/05 23:06:13;;;;;;;12;4.4;;;;;;;;;;;;;-80
2022/03/05 23:10:27;;;;;;;;;;;;;;;1.16;71.70996;102636.3;;;;-82
2022/03/05 23:15:27;;;;;;;;;;;;;;;1.14;71.75;102637.2;;;;-82
2022/03/05 23:20:26;;;;;;;;;;;;;;;1.13;71.66016;102641.1;;;;-81
2022/03/05 23:25:28;;;;;;;;;;;;;;;1.13;71.76953;102643.5;;;;-82
2022/03/05 23:30:27;;;;;;;;;;;;;;;1.13;71.90234;102648.1;;;;-85
2022/03/05 23:35:28;;;;;;;;;;;;;;;1.13;72.00781;102647.3;;;;-81
2022/03/05 23:36:13;;;;;;;9.9;4.6;;;;;;;;;;;;;-80
2022/03/05 23:40:26;;;;;;;;;;;;;;;1.15;71.87109;102649.8;;;;-82
2022/03/05 23:45:29;;;;;;;;;;;;;;;1.19;71.96387;102651.7;;;;-82
2022/03/05 23:50:26;;;;;;;;;;;;;;;1.2;72.15234;102654.7;;;;-82
2022/03/05 23:55:27;;;;;;;;;;;;;;;1.23;72.10254;102658.3;;;;-82
